createdAt,value
2024-02-08T00:01:46.377Z,87.62
2024-02-08T00:04:16.905Z,87.81
2024-02-08T00:06:47.479Z,87.90
2024-02-08T00:09:17.960Z,87.84
2024-02-08T00:11:48.493Z,87.96
2024-02-08T00:14:18.913Z,88.00
2024-02-08T00:16:49.390Z,88.17
2024-02-08T00:19:20.030Z,88.44
2024-02-08T00:21:51.472Z,88.28
2024-02-08T00:24:22.227Z,88.26
2024-02-08T00:26:52.627Z,88.45
2024-02-08T00:29:26.962Z,88.36
2024-02-08T00:32:01.160Z,88.83
2024-02-08T00:34:31.851Z,89.00
2024-02-08T00:37:02.372Z,88.49
2024-02-08T00:39:32.813Z,88.33
2024-02-08T00:42:03.301Z,87.82
2024-02-08T00:44:33.736Z,87.98
2024-02-08T00:47:04.423Z,88.14
2024-02-08T00:49:35.020Z,88.62
2024-02-08T00:52:06.110Z,88.67
2024-02-08T00:54:37.071Z,88.77
2024-02-08T00:57:11.501Z,88.55
2024-02-08T00:59:42.103Z,88.83
2024-02-08T01:02:12.578Z,88.61
2024-02-08T01:04:49.834Z,88.75
2024-02-08T01:07:20.362Z,88.59
2024-02-08T01:09:50.785Z,88.47
2024-02-08T01:12:21.466Z,88.73
2024-02-08T01:14:52.821Z,89.07
2024-02-08T01:17:23.283Z,88.94
2024-02-08T01:19:54.265Z,88.85
2024-02-08T01:22:24.813Z,88.62
2024-02-08T01:24:56.465Z,88.49
2024-02-08T01:27:27.046Z,88.74
2024-02-08T01:30:00.724Z,88.85
2024-02-08T01:32:31.387Z,88.93
2024-02-08T01:35:01.899Z,89.01
2024-02-08T01:37:39.424Z,89.08
2024-02-08T01:40:17.829Z,89.25
2024-02-08T01:42:49.338Z,88.68
2024-02-08T01:45:34.591Z,88.37
2024-02-08T01:48:11.899Z,88.42
2024-02-08T01:50:46.736Z,88.50
2024-02-08T01:53:19.850Z,88.57
2024-02-08T01:55:52.209Z,88.59
2024-02-08T01:58:23.881Z,88.97
2024-02-08T02:00:55.312Z,88.67
2024-02-08T02:03:25.939Z,88.60
2024-02-08T02:05:56.372Z,88.65
2024-02-08T02:08:28.303Z,88.38
2024-02-08T02:11:08.662Z,88.36
2024-02-08T02:13:41.760Z,88.65
2024-02-08T02:16:12.275Z,88.33
2024-02-08T02:18:42.730Z,88.28
2024-02-08T02:21:15.099Z,88.18
2024-02-08T02:23:47.136Z,87.99
2024-02-08T02:26:19.943Z,87.80
2024-02-08T02:28:52.238Z,87.85
2024-02-08T02:31:25.268Z,87.92
2024-02-08T02:33:56.317Z,88.05
2024-02-08T02:36:27.186Z,88.37
2024-02-08T02:38:57.573Z,88.35
2024-02-08T02:41:29.218Z,88.45
2024-02-08T02:43:59.847Z,88.42
2024-02-08T02:46:30.524Z,88.33
2024-02-08T02:49:01.892Z,88.28
2024-02-08T02:51:32.923Z,88.17
2024-02-08T02:54:03.299Z,88.00
2024-02-08T02:56:33.669Z,88.02
2024-02-08T02:59:04.731Z,88.43
2024-02-08T03:01:39.675Z,88.33
2024-02-08T03:04:10.197Z,88.50
2024-02-08T03:06:43.990Z,88.55
2024-02-08T03:09:17.447Z,88.49
2024-02-08T03:11:48.245Z,88.64
2024-02-08T03:14:20.671Z,88.90
2024-02-08T03:16:51.874Z,88.83
2024-02-08T03:19:23.039Z,88.58
2024-02-08T03:21:55.774Z,88.46
2024-02-08T03:24:26.483Z,88.72
2024-02-08T03:26:57.001Z,88.86
2024-02-08T03:29:27.817Z,89.06
2024-02-08T03:31:59.453Z,89.10
2024-02-08T03:34:32.557Z,89.11
2024-02-08T03:37:05.066Z,89.16
2024-02-08T03:39:36.472Z,89.29
2024-02-08T03:42:08.127Z,89.24
2024-02-08T03:44:39.780Z,89.13
2024-02-08T03:47:10.906Z,88.85
2024-02-08T03:49:51.187Z,88.99
2024-02-08T03:52:21.815Z,89.35
2024-02-08T03:54:55.177Z,89.11
2024-02-08T03:57:26.206Z,89.32
2024-02-08T04:00:02.332Z,89.37
2024-02-08T04:02:36.136Z,89.06
2024-02-08T04:05:07.928Z,89.29
2024-02-08T04:07:58.520Z,89.32
2024-02-08T04:10:58.464Z,89.27
2024-02-08T04:13:47.418Z,89.23
2024-02-08T04:16:47.148Z,89.41
2024-02-08T04:19:35.112Z,89.77
2024-02-08T04:22:22.022Z,89.25
2024-02-08T04:25:10.178Z,88.90
2024-02-08T04:27:58.261Z,89.12
2024-02-08T04:30:46.524Z,89.04
2024-02-08T04:33:35.802Z,89.76
2024-02-08T04:36:29.722Z,89.07
2024-02-08T04:39:17.750Z,88.48
2024-02-08T04:42:05.947Z,88.69
2024-02-08T04:44:53.969Z,88.72
2024-02-08T04:47:42.317Z,88.73
2024-02-08T04:50:30.660Z,88.86
2024-02-08T04:53:23.937Z,89.24
2024-02-08T04:55:54.366Z,89.41
2024-02-08T04:58:47.974Z,89.41
2024-02-08T05:01:18.740Z,89.75
2024-02-08T05:03:49.264Z,89.66
2024-02-08T05:06:22.918Z,89.50
2024-02-08T05:09:00.692Z,89.98
2024-02-08T05:11:31.422Z,89.91
2024-02-08T05:14:02.908Z,89.86
2024-02-08T05:16:38.433Z,89.95
2024-02-08T05:19:10.902Z,90.01
2024-02-08T05:21:42.790Z,89.84
2024-02-08T05:24:15.015Z,89.56
2024-02-08T05:26:46.010Z,90.11
2024-02-08T05:29:21.169Z,90.13
2024-02-08T05:31:52.070Z,89.62
2024-02-08T05:34:23.110Z,89.51
2024-02-08T05:36:56.947Z,89.12
2024-02-08T05:39:29.674Z,89.34
2024-02-08T05:42:00.670Z,89.25
2024-02-08T05:44:32.823Z,89.39
2024-02-08T05:47:10.377Z,89.58
2024-02-08T05:49:47.167Z,89.84
2024-02-08T05:52:18.369Z,89.40
2024-02-08T05:54:53.701Z,89.60
2024-02-08T05:57:25.716Z,89.64
2024-02-08T06:00:01.906Z,89.24
2024-02-08T06:02:32.665Z,89.15
2024-02-08T06:05:10.873Z,89.10
2024-02-08T06:07:57.653Z,88.97
2024-02-08T06:10:43.281Z,89.42
2024-02-08T06:13:17.889Z,89.33
2024-02-08T06:15:52.067Z,89.34
2024-02-08T06:18:26.912Z,89.52
2024-02-08T06:21:01.245Z,89.61
2024-02-08T06:23:36.434Z,89.34
2024-02-08T06:26:24.962Z,89.45
2024-02-08T06:28:55.627Z,89.42
2024-02-08T06:31:34.356Z,89.03
2024-02-08T06:34:34.451Z,89.27
2024-02-08T06:37:18.275Z,89.20
2024-02-08T06:39:57.944Z,89.52
2024-02-08T06:42:46.198Z,89.37
2024-02-08T06:45:46.148Z,89.25
2024-02-08T06:48:37.114Z,89.56
2024-02-08T06:51:26.773Z,89.62
2024-02-08T06:54:14.685Z,89.60
2024-02-08T06:57:01.082Z,89.48
2024-02-08T06:59:50.297Z,89.75
2024-02-08T07:02:39.370Z,89.77
2024-02-08T07:05:28.310Z,90.05
2024-02-08T07:08:16.530Z,89.91
2024-02-08T07:11:04.493Z,89.59
2024-02-08T07:13:50.846Z,89.77
2024-02-08T07:16:39.189Z,90.02
2024-02-08T07:19:26.918Z,89.61
2024-02-08T07:22:16.887Z,89.72
2024-02-08T07:25:05.223Z,89.31
2024-02-08T07:27:53.152Z,89.32
2024-02-08T07:30:41.125Z,89.43
2024-02-08T07:33:27.570Z,88.97
2024-02-08T07:36:15.640Z,88.96
2024-02-08T07:38:55.172Z,89.05
2024-02-08T07:41:25.775Z,88.87
2024-02-08T07:43:57.215Z,88.96
2024-02-08T07:46:31.225Z,88.70
2024-02-08T07:49:07.026Z,88.65
2024-02-08T07:51:44.532Z,88.73
2024-02-08T07:54:21.711Z,88.94
2024-02-08T07:56:55.138Z,89.26
2024-02-08T07:59:28.945Z,88.99
2024-02-08T08:01:59.843Z,88.79
2024-02-08T08:04:53.090Z,88.50
2024-02-08T08:07:25.537Z,88.46
2024-02-08T08:10:08.716Z,88.25
2024-02-08T08:12:39.682Z,88.06
2024-02-08T08:15:18.239Z,87.50
2024-02-08T08:18:01.512Z,87.25
2024-02-08T08:20:50.274Z,87.23
2024-02-08T08:23:27.921Z,87.08
2024-02-08T08:26:24.469Z,86.66
2024-02-08T08:29:03.521Z,86.27
2024-02-08T08:31:40.166Z,86.26
2024-02-08T08:34:24.775Z,86.09
2024-02-08T08:37:05.522Z,85.97
2024-02-08T08:40:22.027Z,86.18
2024-02-08T08:42:56.020Z,85.89
2024-02-08T08:45:26.650Z,85.65
2024-02-08T08:48:02.377Z,85.46
2024-02-08T08:50:33.082Z,85.01
2024-02-08T08:53:08.770Z,84.90
2024-02-08T08:55:41.251Z,84.64
2024-02-08T08:58:13.723Z,84.77
2024-02-08T09:00:48.132Z,84.42
2024-02-08T09:03:28.053Z,84.40
2024-02-08T09:05:59.263Z,84.10
2024-02-08T09:08:43.028Z,83.76
2024-02-08T09:11:14.920Z,83.89
2024-02-08T09:13:46.497Z,84.37
2024-02-08T09:16:34.481Z,84.28
2024-02-08T09:19:13.712Z,84.02
2024-02-08T09:21:46.685Z,83.72
2024-02-08T09:24:20.736Z,83.54
2024-02-08T09:26:53.533Z,83.32
2024-02-08T09:29:30.017Z,82.96
2024-02-08T09:32:17.089Z,82.68
2024-02-08T09:34:54.482Z,82.15
2024-02-08T09:37:25.184Z,81.70
2024-02-08T09:40:00.150Z,80.91
2024-02-08T09:42:31.537Z,81.04
2024-02-08T09:45:19.276Z,81.14
2024-02-08T09:47:53.541Z,80.60
2024-02-08T09:50:37.579Z,80.61
2024-02-08T09:53:17.405Z,80.04
2024-02-08T09:55:50.365Z,79.52
2024-02-08T09:58:38.629Z,79.68
2024-02-08T10:01:24.192Z,79.06
2024-02-08T10:04:06.372Z,78.93
2024-02-08T10:06:47.624Z,78.50
2024-02-08T10:09:41.900Z,78.29
2024-02-08T10:12:20.503Z,77.77
2024-02-08T10:15:01.175Z,77.70
2024-02-08T10:17:42.934Z,77.50
2024-02-08T10:20:37.712Z,77.56
2024-02-08T10:23:34.860Z,77.27
2024-02-08T10:26:28.173Z,77.21
2024-02-08T10:29:09.620Z,76.74
2024-02-08T10:31:40.358Z,76.74
2024-02-08T10:34:12.201Z,76.44
2024-02-08T10:36:46.579Z,76.50
2024-02-08T10:39:26.549Z,76.12
2024-02-08T10:42:00.804Z,76.11
2024-02-08T10:44:34.555Z,75.89
2024-02-08T10:47:10.380Z,75.84
2024-02-08T10:49:47.464Z,75.85
2024-02-08T10:52:22.844Z,75.21
2024-02-08T10:54:57.123Z,75.06
2024-02-08T10:58:04.265Z,75.14
2024-02-08T11:01:08.106Z,74.69
2024-02-08T11:03:54.117Z,74.08
2024-02-08T11:06:30.900Z,73.80
2024-02-08T11:09:15.580Z,73.88
2024-02-08T11:11:52.940Z,73.38
2024-02-08T11:14:26.526Z,73.10
2024-02-08T11:17:05.327Z,72.41
2024-02-08T11:19:41.121Z,72.37
2024-02-08T11:22:36.451Z,72.06
2024-02-08T11:25:21.712Z,71.82
2024-02-08T11:27:53.760Z,71.15
2024-02-08T11:30:35.721Z,70.86
2024-02-08T11:33:07.137Z,70.92
2024-02-08T11:35:46.781Z,71.07
2024-02-08T11:38:18.785Z,70.73
2024-02-08T11:40:53.078Z,70.88
2024-02-08T11:43:28.205Z,70.61
2024-02-08T11:45:59.562Z,70.42
2024-02-08T11:48:31.449Z,69.77
2024-02-08T11:51:11.849Z,69.25
2024-02-08T11:53:45.647Z,68.81
2024-02-08T11:56:22.109Z,68.71
2024-02-08T11:58:55.395Z,68.15
2024-02-08T12:01:27.656Z,67.62
2024-02-08T12:03:59.486Z,67.45
2024-02-08T12:06:33.486Z,66.96
2024-02-08T12:09:04.953Z,67.29
2024-02-08T12:11:36.269Z,67.11
2024-02-08T12:14:15.736Z,66.78
2024-02-08T12:16:58.834Z,66.46
2024-02-08T12:19:30.758Z,66.43
2024-02-08T12:22:05.464Z,66.21
2024-02-08T12:24:36.759Z,66.20
2024-02-08T12:27:16.255Z,66.54
2024-02-08T12:29:52.574Z,66.57
2024-02-08T12:32:31.663Z,66.41
2024-02-08T12:35:15.079Z,66.20
2024-02-08T12:37:47.558Z,66.22
2024-02-08T12:40:20.458Z,66.27
2024-02-08T12:42:55.059Z,66.37
2024-02-08T12:45:25.695Z,66.53
2024-02-08T12:47:57.756Z,66.50
2024-02-08T12:53:07.082Z,65.75
2024-02-08T12:55:37.692Z,65.09
2024-02-08T12:58:14.746Z,64.82
2024-02-08T13:00:47.087Z,64.75
2024-02-08T13:03:19.192Z,64.37
2024-02-08T13:05:51.524Z,64.45
2024-02-08T13:08:23.343Z,64.07
2024-02-08T13:10:58.395Z,63.68
2024-02-08T13:13:30.083Z,63.91
2024-02-08T13:16:11.181Z,63.77
2024-02-08T13:18:44.531Z,63.73
2024-02-08T13:21:16.909Z,63.67
2024-02-08T13:23:53.151Z,63.90
2024-02-08T13:26:30.149Z,64.10
2024-02-08T13:29:03.947Z,64.34
2024-02-08T13:31:39.396Z,64.60
2024-02-08T13:34:10.680Z,64.71
2024-02-08T13:36:45.071Z,65.00
2024-02-08T13:39:15.857Z,65.11
2024-02-08T13:41:47.515Z,65.00
2024-02-08T13:44:18.358Z,65.27
2024-02-08T13:46:50.335Z,65.45
2024-02-08T13:49:23.026Z,65.33
2024-02-08T13:51:53.737Z,65.32
2024-02-08T13:54:24.188Z,65.32
2024-02-08T13:56:54.687Z,65.19
2024-02-08T13:59:26.722Z,65.64
2024-02-08T14:01:57.293Z,66.37
2024-02-08T14:04:28.867Z,67.44
2024-02-08T14:06:59.406Z,68.09
2024-02-08T14:09:32.682Z,68.78
2024-02-08T14:12:09.652Z,68.91
2024-02-08T14:14:43.014Z,69.22
2024-02-08T14:17:21.465Z,69.31
2024-02-08T14:19:55.989Z,69.40
2024-02-08T14:22:28.449Z,69.63
2024-02-08T14:24:59.614Z,69.82
2024-02-08T14:27:32.623Z,70.17
2024-02-08T14:30:06.678Z,70.07
2024-02-08T14:32:37.193Z,69.79
2024-02-08T14:35:17.687Z,68.58
2024-02-08T14:37:48.485Z,67.52
2024-02-08T14:40:19.261Z,67.18
2024-02-08T14:42:49.756Z,66.76
2024-02-08T14:45:25.951Z,66.53
2024-02-08T14:47:56.450Z,67.12
2024-02-08T14:50:40.829Z,67.56
2024-02-08T14:53:12.051Z,68.02
2024-02-08T14:55:46.421Z,68.66
2024-02-08T14:58:34.219Z,69.53
2024-02-08T15:01:12.920Z,70.21
2024-02-08T15:03:45.689Z,70.93
2024-02-08T15:09:37.747Z,72.26
2024-02-08T15:12:15.052Z,72.74
2024-02-08T15:14:46.900Z,73.15
2024-02-08T15:17:20.594Z,73.09
2024-02-08T15:19:53.814Z,73.73
2024-02-08T15:22:43.121Z,74.18
2024-02-08T15:25:17.818Z,74.30
2024-02-08T15:27:54.461Z,74.66
2024-02-08T15:30:38.279Z,74.67
2024-02-08T15:33:30.236Z,74.81
2024-02-08T15:36:11.722Z,75.37
2024-02-08T15:39:01.746Z,75.77
2024-02-08T15:41:43.039Z,76.03
2024-02-08T15:44:16.895Z,76.99
2024-02-08T15:46:51.022Z,77.37
2024-02-08T15:49:30.296Z,77.79
2024-02-08T15:52:00.944Z,78.74
2024-02-08T15:54:39.401Z,78.85
2024-02-08T15:57:13.719Z,79.37
2024-02-08T15:59:46.104Z,79.73
2024-02-08T16:02:19.512Z,80.39
2024-02-08T16:04:52.787Z,80.41
2024-02-08T16:07:29.474Z,80.74
2024-02-08T16:10:00.422Z,81.00
2024-02-08T16:12:40.280Z,81.25
2024-02-08T16:15:18.651Z,81.52
2024-02-08T16:18:01.598Z,81.66
2024-02-08T16:20:40.210Z,81.98
2024-02-08T16:23:15.496Z,82.33
2024-02-08T16:25:46.844Z,82.50
2024-02-08T16:28:22.245Z,82.66
2024-02-08T16:31:01.884Z,82.58
2024-02-08T16:33:43.401Z,82.95
2024-02-08T16:36:36.613Z,83.32
2024-02-08T16:39:22.828Z,83.59
2024-02-08T16:42:01.347Z,83.51
2024-02-08T16:44:36.520Z,83.93
2024-02-08T16:47:29.195Z,83.96
2024-02-08T16:50:08.413Z,84.24
2024-02-08T16:52:49.919Z,84.55
2024-02-08T16:55:23.992Z,84.58
2024-02-08T16:58:07.647Z,84.79
2024-02-08T17:00:40.205Z,84.74
2024-02-08T17:03:30.763Z,85.09
2024-02-08T17:06:12.972Z,85.09
2024-02-08T17:09:02.023Z,85.31
2024-02-08T17:11:36.714Z,85.65
2024-02-08T17:14:09.887Z,85.79
2024-02-08T17:16:47.155Z,86.27
2024-02-08T17:19:47.518Z,86.06
2024-02-08T17:22:42.191Z,86.44
2024-02-08T17:25:43.121Z,86.61
2024-02-08T17:28:22.557Z,86.92
2024-02-08T17:31:08.682Z,86.83
2024-02-08T17:33:41.722Z,87.01
2024-02-08T17:36:14.603Z,87.00
2024-02-08T17:38:45.609Z,87.11
2024-02-08T17:41:17.198Z,87.21
2024-02-08T17:43:56.718Z,87.44
2024-02-08T17:46:31.578Z,87.66
2024-02-08T17:49:06.256Z,87.65
2024-02-08T17:51:39.949Z,87.99
2024-02-08T17:54:11.777Z,88.06
2024-02-08T17:56:46.583Z,88.33
2024-02-08T17:59:18.216Z,88.35
2024-02-08T18:01:57.290Z,88.27
2024-02-08T18:04:31.111Z,88.31
2024-02-08T18:07:09.433Z,88.41
2024-02-08T18:09:54.774Z,88.73
2024-02-08T18:12:35.409Z,89.04
2024-02-08T18:15:13.817Z,89.14
2024-02-08T18:17:47.015Z,89.56
2024-02-08T18:20:18.044Z,89.40
2024-02-08T18:22:49.977Z,89.65
2024-02-08T18:25:29.907Z,89.59
2024-02-08T18:28:01.784Z,89.68
2024-02-08T18:30:34.577Z,89.81
2024-02-08T18:33:06.189Z,89.98
2024-02-08T18:35:37.521Z,90.06
2024-02-08T18:38:12.649Z,90.40
2024-02-08T18:40:51.136Z,90.44
2024-02-08T18:43:21.746Z,90.37
2024-02-08T18:45:53.531Z,90.42
2024-02-08T18:48:30.495Z,90.23
2024-02-08T18:51:07.378Z,90.58
2024-02-08T18:53:41.250Z,90.87
2024-02-08T18:56:14.474Z,90.87
2024-02-08T18:58:53.674Z,90.94
2024-02-08T19:01:29.558Z,90.92
2024-02-08T19:04:05.823Z,91.25
2024-02-08T19:06:41.338Z,91.26
2024-02-08T19:09:20.675Z,91.27
2024-02-08T19:11:54.233Z,91.30
2024-02-08T19:14:28.233Z,91.53
2024-02-08T19:17:00.496Z,91.61
2024-02-08T19:19:35.142Z,91.56
2024-02-08T19:22:14.364Z,91.52
2024-02-08T19:24:47.211Z,91.71
2024-02-08T19:27:17.937Z,91.72
2024-02-08T19:29:48.588Z,91.71
2024-02-08T19:32:21.246Z,92.00
2024-02-08T19:34:53.184Z,92.17
2024-02-08T19:37:24.571Z,92.07
2024-02-08T19:39:56.726Z,92.21
2024-02-08T19:42:27.406Z,92.18
2024-02-08T19:45:01.407Z,92.33
2024-02-08T19:47:32.821Z,92.46
2024-02-08T19:50:08.531Z,92.42
2024-02-08T19:52:46.774Z,92.42
2024-02-08T19:55:35.402Z,92.59
2024-02-08T19:58:09.755Z,92.71
2024-02-08T20:00:47.598Z,92.74
2024-02-08T20:03:28.634Z,92.74
2024-02-08T20:06:02.312Z,92.80
2024-02-08T20:08:36.407Z,92.72
2024-02-08T20:11:13.214Z,92.80
2024-02-08T20:13:48.002Z,92.79
2024-02-08T20:16:28.709Z,92.95
2024-02-08T20:19:02.309Z,93.10
2024-02-08T20:21:33.193Z,93.16
2024-02-08T20:24:03.948Z,93.18
2024-02-08T20:26:34.398Z,93.27
2024-02-08T20:29:05.927Z,93.22
2024-02-08T20:31:37.245Z,93.41
2024-02-08T20:34:09.695Z,93.59
2024-02-08T20:36:43.013Z,93.50
2024-02-08T20:39:21.087Z,93.45
2024-02-08T20:41:56.653Z,93.63
2024-02-08T20:44:32.888Z,93.83
2024-02-08T20:47:10.678Z,93.71
2024-02-08T20:49:43.876Z,93.94
2024-02-08T20:52:19.098Z,93.89
2024-02-08T20:54:58.023Z,94.25
2024-02-08T20:57:30.660Z,94.12
2024-02-08T21:00:06.035Z,93.92
2024-02-08T21:02:41.502Z,94.23
2024-02-08T21:05:13.924Z,94.05
2024-02-08T21:07:48.721Z,94.49
2024-02-08T21:10:27.112Z,94.36
2024-02-08T21:13:01.243Z,94.49
2024-02-08T21:15:40.174Z,94.62
2024-02-08T21:18:14.778Z,94.67
2024-02-08T21:20:47.573Z,94.96
2024-02-08T21:23:20.500Z,94.84
2024-02-08T21:25:52.577Z,94.99
2024-02-08T21:28:27.228Z,95.11
2024-02-08T21:31:00.823Z,94.93
2024-02-08T21:33:33.912Z,94.92
2024-02-08T21:36:07.419Z,95.13
2024-02-08T21:38:39.575Z,95.20
2024-02-08T21:41:12.149Z,95.39
2024-02-08T21:43:44.870Z,95.17
2024-02-08T21:46:19.193Z,95.35
2024-02-08T21:48:52.098Z,95.03
2024-02-08T21:51:27.340Z,95.15
2024-02-08T21:54:02.070Z,95.18
2024-02-08T21:56:39.444Z,95.48
2024-02-08T21:59:15.743Z,95.81
2024-02-08T22:01:47.144Z,95.49
2024-02-08T22:04:19.493Z,95.56
2024-02-08T22:06:50.390Z,95.74
2024-02-08T22:09:23.015Z,95.66
2024-02-08T22:11:56.635Z,95.83
2024-02-08T22:14:29.773Z,95.91
2024-02-08T22:17:10.103Z,95.76
2024-02-08T22:19:45.515Z,95.84
2024-02-08T22:22:18.400Z,95.99
2024-02-08T22:24:57.201Z,96.15
2024-02-08T22:27:30.057Z,96.09
2024-02-08T22:30:02.899Z,96.24
2024-02-08T22:32:37.339Z,96.51
2024-02-08T22:35:11.828Z,96.62
2024-02-08T22:37:44.980Z,96.53
2024-02-08T22:40:20.510Z,96.52
2024-02-08T22:42:53.694Z,96.52
2024-02-08T22:45:25.657Z,96.52
2024-02-08T22:47:57.872Z,96.53
2024-02-08T22:50:30.146Z,96.47
2024-02-08T22:53:07.299Z,96.57
2024-02-08T22:55:41.341Z,96.84
2024-02-08T22:58:13.766Z,96.55
2024-02-08T23:00:51.062Z,97.01
2024-02-08T23:03:25.935Z,97.24
2024-02-08T23:06:00.278Z,96.94
2024-02-08T23:08:31.529Z,96.98
2024-02-08T23:11:04.846Z,97.14
2024-02-08T23:13:37.507Z,97.32
2024-02-08T23:16:10.877Z,97.06
2024-02-08T23:18:43.532Z,97.28
2024-02-08T23:21:22.888Z,97.34
2024-02-08T23:23:56.108Z,97.23
2024-02-08T23:26:28.477Z,97.32
2024-02-08T23:28:59.744Z,97.42
2024-02-08T23:31:32.735Z,97.45
2024-02-08T23:34:05.634Z,97.26
2024-02-08T23:36:40.264Z,97.19
2024-02-08T23:39:12.742Z,97.28
2024-02-08T23:41:45.023Z,97.21
2024-02-08T23:44:17.956Z,97.48
2024-02-08T23:46:50.173Z,97.72
2024-02-08T23:49:22.746Z,97.43
2024-02-08T23:51:54.369Z,97.61
2024-02-08T23:54:26.532Z,97.53
2024-02-08T23:56:58.438Z,97.72
2024-02-08T23:59:30.462Z,97.72
